sensor_id;sensor_type;location;lat;lon;timestamp;temperature;humidity
2190;DHT22;1101;51.056;7.262;2023-06-24T00:02:01;17.30;79.70
2190;DHT22;1101;51.056;7.262;2023-06-24T00:04:29;17.30;79.90
2190;DHT22;1101;51.056;7.262;2023-06-24T00:06:57;17.20;80.00
2190;DHT22;1101;51.056;7.262;2023-06-24T00:09:28;17.20;79.90
2190;DHT22;1101;51.056;7.262;2023-06-24T00:11:56;17.20;80.10
2190;DHT22;1101;51.056;7.262;2023-06-24T00:14:25;17.10;80.00
2190;DHT22;1101;51.056;7.262;2023-06-24T00:16:54;17.10;79.90
2190;DHT22;1101;51.056;7.262;2023-06-24T00:19:25;17.10;80.00
2190;DHT22;1101;51.056;7.262;2023-06-24T00:21:53;17.00;80.00
2190;DHT22;1101;51.056;7.262;2023-06-24T00:24:21;17.00;80.00
2190;DHT22;1101;51.056;7.262;2023-06-24T00:26:53;17.00;80.10
2190;DHT22;1101;51.056;7.262;2023-06-24T00:29:21;16.90;80.10
2190;DHT22;1101;51.056;7.262;2023-06-24T00:31:49;16.90;80.10
2190;DHT22;1101;51.056;7.262;2023-06-24T00:34:17;16.90;80.30
2190;DHT22;1101;51.056;7.262;2023-06-24T00:36:46;16.90;80.30
2190;DHT22;1101;51.056;7.262;2023-06-24T00:39:14;16.80;80.20
2190;DHT22;1101;51.056;7.262;2023-06-24T00:41:42;16.80;80.20
2190;DHT22;1101;51.056;7.262;2023-06-24T00:44:11;16.80;80.50
2190;DHT22;1101;51.056;7.262;2023-06-24T00:46:39;16.70;80.40
2190;DHT22;1101;51.056;7.262;2023-06-24T00:49:07;16.70;80.40
2190;DHT22;1101;51.056;7.262;2023-06-24T00:52:03;16.70;80.60
2190;DHT22;1101;51.056;7.262;2023-06-24T00:54:31;16.70;80.90
2190;DHT22;1101;51.056;7.262;2023-06-24T00:56:59;16.60;80.50
2190;DHT22;1101;51.056;7.262;2023-06-24T00:59:29;16.60;80.60
2190;DHT22;1101;51.056;7.262;2023-06-24T01:01:58;16.60;80.70
2190;DHT22;1101;51.056;7.262;2023-06-24T01:04:28;16.50;80.60
2190;DHT22;1101;51.056;7.262;2023-06-24T01:06:57;16.50;80.70
2190;DHT22;1101;51.056;7.262;2023-06-24T01:09:25;16.50;80.80
2190;DHT22;1101;51.056;7.262;2023-06-24T01:11:53;16.50;80.90
2190;DHT22;1101;51.056;7.262;2023-06-24T01:14:21;16.40;80.70
2190;DHT22;1101;51.056;7.262;2023-06-24T01:16:56;16.40;80.80
2190;DHT22;1101;51.056;7.262;2023-06-24T01:19:47;16.40;81.00
2190;DHT22;1101;51.056;7.262;2023-06-24T01:22:31;16.40;81.00
2190;DHT22;1101;51.056;7.262;2023-06-24T01:25:13;16.30;81.00
2190;DHT22;1101;51.056;7.262;2023-06-24T01:28:02;16.30;81.10
2190;DHT22;1101;51.056;7.262;2023-06-24T01:30:47;16.30;81.10
2190;DHT22;1101;51.056;7.262;2023-06-24T01:33:23;16.30;81.20
2190;DHT22;1101;51.056;7.262;2023-06-24T01:35:53;16.20;81.10
2190;DHT22;1101;51.056;7.262;2023-06-24T01:38:24;16.20;81.20
2190;DHT22;1101;51.056;7.262;2023-06-24T01:40:54;16.20;82.00
2190;DHT22;1101;51.056;7.262;2023-06-24T01:43:23;16.10;81.10
2190;DHT22;1101;51.056;7.262;2023-06-24T01:45:53;16.10;81.30
2190;DHT22;1101;51.056;7.262;2023-06-24T01:48:25;16.10;81.30
2190;DHT22;1101;51.056;7.262;2023-06-24T01:50:58;16.10;82.10
2190;DHT22;1101;51.056;7.262;2023-06-24T01:53:27;16.00;81.30
2190;DHT22;1101;51.056;7.262;2023-06-24T01:55:57;16.00;81.30
2190;DHT22;1101;51.056;7.262;2023-06-24T01:58:26;15.90;81.30
2190;DHT22;1101;51.056;7.262;2023-06-24T02:00:56;15.90;81.40
2190;DHT22;1101;51.056;7.262;2023-06-24T02:03:27;15.90;81.60
2190;DHT22;1101;51.056;7.262;2023-06-24T02:05:56;15.80;81.70
2190;DHT22;1101;51.056;7.262;2023-06-24T02:08:24;15.80;81.60
2190;DHT22;1101;51.056;7.262;2023-06-24T02:10:54;15.80;81.70
2190;DHT22;1101;51.056;7.262;2023-06-24T02:13:23;15.80;81.70
2190;DHT22;1101;51.056;7.262;2023-06-24T02:15:51;15.80;81.80
2190;DHT22;1101;51.056;7.262;2023-06-24T02:18:20;15.70;81.70
2190;DHT22;1101;51.056;7.262;2023-06-24T02:20:51;15.70;81.70
2190;DHT22;1101;51.056;7.262;2023-06-24T02:23:20;15.70;81.90
2190;DHT22;1101;51.056;7.262;2023-06-24T02:25:49;15.70;82.00
2190;DHT22;1101;51.056;7.262;2023-06-24T02:28:18;15.60;81.80
2190;DHT22;1101;51.056;7.262;2023-06-24T02:30:46;15.60;81.90
2190;DHT22;1101;51.056;7.262;2023-06-24T02:33:14;15.60;82.00
2190;DHT22;1101;51.056;7.262;2023-06-24T02:35:43;15.60;82.00
2190;DHT22;1101;51.056;7.262;2023-06-24T02:38:14;15.60;82.00
2190;DHT22;1101;51.056;7.262;2023-06-24T02:40:43;15.50;81.90
2190;DHT22;1101;51.056;7.262;2023-06-24T02:43:11;15.60;82.10
2190;DHT22;1101;51.056;7.262;2023-06-24T02:45:39;15.50;82.00
2190;DHT22;1101;51.056;7.262;2023-06-24T02:48:08;15.50;82.10
2190;DHT22;1101;51.056;7.262;2023-06-24T02:50:37;15.40;82.10
2190;DHT22;1101;51.056;7.262;2023-06-24T02:53:07;15.40;82.00
2190;DHT22;1101;51.056;7.262;2023-06-24T02:55:37;15.40;82.20
2190;DHT22;1101;51.056;7.262;2023-06-24T02:58:06;15.30;82.20
2190;DHT22;1101;51.056;7.262;2023-06-24T03:00:35;15.30;82.30
2190;DHT22;1101;51.056;7.262;2023-06-24T03:03:04;15.30;82.30
2190;DHT22;1101;51.056;7.262;2023-06-24T03:05:32;15.30;82.40
2190;DHT22;1101;51.056;7.262;2023-06-24T03:08:01;15.30;82.40
2190;DHT22;1101;51.056;7.262;2023-06-24T03:10:30;15.30;82.40
2190;DHT22;1101;51.056;7.262;2023-06-24T03:12:59;15.20;82.40
2190;DHT22;1101;51.056;7.262;2023-06-24T03:15:27;15.20;82.50
2190;DHT22;1101;51.056;7.262;2023-06-24T03:17:55;15.20;82.50
2190;DHT22;1101;51.056;7.262;2023-06-24T03:20:23;15.20;82.60
2190;DHT22;1101;51.056;7.262;2023-06-24T03:22:51;15.20;82.60
2190;DHT22;1101;51.056;7.262;2023-06-24T03:25:21;15.20;82.60
2190;DHT22;1101;51.056;7.262;2023-06-24T03:27:48;15.20;82.60
2190;DHT22;1101;51.056;7.262;2023-06-24T03:30:18;15.20;82.60
2190;DHT22;1101;51.056;7.262;2023-06-24T03:32:45;15.20;82.60
2190;DHT22;1101;51.056;7.262;2023-06-24T03:35:14;15.20;82.60
2190;DHT22;1101;51.056;7.262;2023-06-24T03:37:42;15.20;82.70
2190;DHT22;1101;51.056;7.262;2023-06-24T03:40:11;15.10;82.70
2190;DHT22;1101;51.056;7.262;2023-06-24T03:42:39;15.20;82.90
2190;DHT22;1101;51.056;7.262;2023-06-24T03:45:07;15.10;82.80
2190;DHT22;1101;51.056;7.262;2023-06-24T03:47:36;15.10;82.80
2190;DHT22;1101;51.056;7.262;2023-06-24T03:50:06;15.20;83.00
2190;DHT22;1101;51.056;7.262;2023-06-24T03:52:34;15.20;83.00
2190;DHT22;1101;51.056;7.262;2023-06-24T03:55:02;15.20;83.00
2190;DHT22;1101;51.056;7.262;2023-06-24T03:57:31;15.10;82.90
2190;DHT22;1101;51.056;7.262;2023-06-24T03:59:59;15.20;83.00
2190;DHT22;1101;51.056;7.262;2023-06-24T04:02:27;15.20;83.00
2190;DHT22;1101;51.056;7.262;2023-06-24T04:04:57;15.20;83.00
2190;DHT22;1101;51.056;7.262;2023-06-24T04:07:25;15.20;83.00
2190;DHT22;1101;51.056;7.262;2023-06-24T04:09:55;15.20;83.00
2190;DHT22;1101;51.056;7.262;2023-06-24T04:12:23;15.20;83.10
2190;DHT22;1101;51.056;7.262;2023-06-24T04:14:51;15.20;83.10
2190;DHT22;1101;51.056;7.262;2023-06-24T04:17:20;15.20;83.10
2190;DHT22;1101;51.056;7.262;2023-06-24T04:19:48;15.20;83.10
2190;DHT22;1101;51.056;7.262;2023-06-24T04:22:17;15.20;83.10
2190;DHT22;1101;51.056;7.262;2023-06-24T04:24:45;15.30;83.30
2190;DHT22;1101;51.056;7.262;2023-06-24T04:27:12;15.30;83.30
2190;DHT22;1101;51.056;7.262;2023-06-24T04:29:40;15.30;83.30
2190;DHT22;1101;51.056;7.262;2023-06-24T04:32:08;15.30;83.30
2190;DHT22;1101;51.056;7.262;2023-06-24T04:34:36;15.30;83.30
2190;DHT22;1101;51.056;7.262;2023-06-24T04:37:04;15.40;83.40
2190;DHT22;1101;51.056;7.262;2023-06-24T04:39:33;15.40;83.50
2190;DHT22;1101;51.056;7.262;2023-06-24T04:42:01;15.40;83.50
2190;DHT22;1101;51.056;7.262;2023-06-24T04:44:29;15.40;83.50
2190;DHT22;1101;51.056;7.262;2023-06-24T04:46:56;15.40;83.50
2190;DHT22;1101;51.056;7.262;2023-06-24T04:49:24;15.50;83.50
2190;DHT22;1101;51.056;7.262;2023-06-24T04:51:52;15.50;83.60
2190;DHT22;1101;51.056;7.262;2023-06-24T04:54:20;15.50;83.50
2190;DHT22;1101;51.056;7.262;2023-06-24T04:56:49;15.60;83.70
2190;DHT22;1101;51.056;7.262;2023-06-24T04:59:19;15.60;83.70
2190;DHT22;1101;51.056;7.262;2023-06-24T05:01:46;15.70;84.60
2190;DHT22;1101;51.056;7.262;2023-06-24T05:04:14;15.70;83.80
2190;DHT22;1101;51.056;7.262;2023-06-24T05:06:42;15.80;84.60
2190;DHT22;1101;51.056;7.262;2023-06-24T05:09:10;15.80;83.80
2190;DHT22;1101;51.056;7.262;2023-06-24T05:11:40;15.90;83.80
2190;DHT22;1101;51.056;7.262;2023-06-24T05:14:09;15.90;83.70
2190;DHT22;1101;51.056;7.262;2023-06-24T05:16:37;16.00;83.80
2190;DHT22;1101;51.056;7.262;2023-06-24T05:19:05;16.10;83.80
2190;DHT22;1101;51.056;7.262;2023-06-24T05:21:33;16.10;83.60
2190;DHT22;1101;51.056;7.262;2023-06-24T05:24:00;16.10;83.50
2190;DHT22;1101;51.056;7.262;2023-06-24T05:26:28;16.20;83.60
2190;DHT22;1101;51.056;7.262;2023-06-24T05:28:56;16.30;83.70
2190;DHT22;1101;51.056;7.262;2023-06-24T05:31:25;16.30;83.70
2190;DHT22;1101;51.056;7.262;2023-06-24T05:33:53;16.40;83.70
2190;DHT22;1101;51.056;7.262;2023-06-24T05:36:21;16.40;83.60
2190;DHT22;1101;51.056;7.262;2023-06-24T05:38:48;16.50;83.80
2190;DHT22;1101;51.056;7.262;2023-06-24T05:41:16;16.50;83.70
2190;DHT22;1101;51.056;7.262;2023-06-24T05:43:44;16.60;83.60
2190;DHT22;1101;51.056;7.262;2023-06-24T05:46:12;16.70;83.60
2190;DHT22;1101;51.056;7.262;2023-06-24T05:48:41;16.80;83.60
2190;DHT22;1101;51.056;7.262;2023-06-24T05:51:09;16.80;83.40
2190;DHT22;1101;51.056;7.262;2023-06-24T05:53:37;16.90;83.40
2190;DHT22;1101;51.056;7.262;2023-06-24T05:56:05;17.00;83.30
2190;DHT22;1101;51.056;7.262;2023-06-24T05:58:32;17.10;83.30
2190;DHT22;1101;51.056;7.262;2023-06-24T06:01:00;17.20;83.30
2190;DHT22;1101;51.056;7.262;2023-06-24T06:03:28;17.30;83.20
2190;DHT22;1101;51.056;7.262;2023-06-24T06:05:57;17.50;83.10
2190;DHT22;1101;51.056;7.262;2023-06-24T06:08:25;17.70;83.00
2190;DHT22;1101;51.056;7.262;2023-06-24T06:10:53;17.90;83.00
2190;DHT22;1101;51.056;7.262;2023-06-24T06:13:21;18.10;82.80
2190;DHT22;1101;51.056;7.262;2023-06-24T06:15:48;18.30;82.70
2190;DHT22;1101;51.056;7.262;2023-06-24T06:18:16;18.40;82.50
2190;DHT22;1101;51.056;7.262;2023-06-24T06:20:44;18.60;82.40
2190;DHT22;1101;51.056;7.262;2023-06-24T06:23:14;18.80;82.40
2190;DHT22;1101;51.056;7.262;2023-06-24T06:25:42;18.80;82.20
2190;DHT22;1101;51.056;7.262;2023-06-24T06:28:13;19.00;82.10
2190;DHT22;1101;51.056;7.262;2023-06-24T06:30:41;19.10;82.00
2190;DHT22;1101;51.056;7.262;2023-06-24T06:33:09;19.20;82.10
2190;DHT22;1101;51.056;7.262;2023-06-24T06:35:37;19.30;82.00
2190;DHT22;1101;51.056;7.262;2023-06-24T06:38:05;19.30;82.00
2190;DHT22;1101;51.056;7.262;2023-06-24T06:40:34;19.50;82.10
2190;DHT22;1101;51.056;7.262;2023-06-24T06:43:02;19.40;81.90
2190;DHT22;1101;51.056;7.262;2023-06-24T06:45:30;19.50;81.90
2190;DHT22;1101;51.056;7.262;2023-06-24T06:47:58;19.50;81.90
2190;DHT22;1101;51.056;7.262;2023-06-24T06:50:26;19.60;81.90
2190;DHT22;1101;51.056;7.262;2023-06-24T06:52:54;19.60;81.80
2190;DHT22;1101;51.056;7.262;2023-06-24T06:55:22;19.70;81.90
2190;DHT22;1101;51.056;7.262;2023-06-24T06:57:51;19.80;81.90
2190;DHT22;1101;51.056;7.262;2023-06-24T07:00:19;19.90;81.80
2190;DHT22;1101;51.056;7.262;2023-06-24T07:02:47;20.00;81.80
2190;DHT22;1101;51.056;7.262;2023-06-24T07:05:15;20.00;81.70
2190;DHT22;1101;51.056;7.262;2023-06-24T07:07:43;20.00;81.80
2190;DHT22;1101;51.056;7.262;2023-06-24T07:10:12;20.10;81.90
2190;DHT22;1101;51.056;7.262;2023-06-24T07:12:40;20.10;81.90
2190;DHT22;1101;51.056;7.262;2023-06-24T07:15:10;20.10;81.90
2190;DHT22;1101;51.056;7.262;2023-06-24T07:17:40;20.20;82.00
2190;DHT22;1101;51.056;7.262;2023-06-24T07:20:09;20.30;82.00
2190;DHT22;1101;51.056;7.262;2023-06-24T07:22:37;20.40;82.00
2190;DHT22;1101;51.056;7.262;2023-06-24T07:25:05;20.40;81.90
2190;DHT22;1101;51.056;7.262;2023-06-24T07:27:33;20.50;81.90
2190;DHT22;1101;51.056;7.262;2023-06-24T07:30:00;20.60;81.90
2190;DHT22;1101;51.056;7.262;2023-06-24T07:32:29;20.60;81.90
2190;DHT22;1101;51.056;7.262;2023-06-24T07:34:57;20.70;82.00
2190;DHT22;1101;51.056;7.262;2023-06-24T07:37:25;20.80;82.00
2190;DHT22;1101;51.056;7.262;2023-06-24T07:39:53;20.80;81.90
2190;DHT22;1101;51.056;7.262;2023-06-24T07:42:21;20.90;82.00
2190;DHT22;1101;51.056;7.262;2023-06-24T07:44:48;21.00;82.00
2190;DHT22;1101;51.056;7.262;2023-06-24T07:47:17;21.20;82.10
2190;DHT22;1101;51.056;7.262;2023-06-24T07:49:47;21.30;82.00
2190;DHT22;1101;51.056;7.262;2023-06-24T07:52:14;21.50;82.00
2190;DHT22;1101;51.056;7.262;2023-06-24T07:54:42;21.60;81.80
2190;DHT22;1101;51.056;7.262;2023-06-24T07:57:10;21.80;81.80
2190;DHT22;1101;51.056;7.262;2023-06-24T07:59:38;22.00;81.80
2190;DHT22;1101;51.056;7.262;2023-06-24T08:02:06;22.10;81.70
2190;DHT22;1101;51.056;7.262;2023-06-24T08:04:34;22.20;81.80
2190;DHT22;1101;51.056;7.262;2023-06-24T08:07:04;22.20;81.60
2190;DHT22;1101;51.056;7.262;2023-06-24T08:09:32;22.30;81.50
2190;DHT22;1101;51.056;7.262;2023-06-24T08:12:00;22.50;81.70
2190;DHT22;1101;51.056;7.262;2023-06-24T08:14:28;22.50;81.50
2190;DHT22;1101;51.056;7.262;2023-06-24T08:16:56;22.60;81.40
2190;DHT22;1101;51.056;7.262;2023-06-24T08:19:24;22.60;81.50
2190;DHT22;1101;51.056;7.262;2023-06-24T08:21:51;22.70;81.50
2190;DHT22;1101;51.056;7.262;2023-06-24T08:24:21;22.80;81.50
2190;DHT22;1101;51.056;7.262;2023-06-24T08:26:49;22.90;81.40
2190;DHT22;1101;51.056;7.262;2023-06-24T08:29:17;23.00;81.40
2190;DHT22;1101;51.056;7.262;2023-06-24T08:31:44;23.10;81.30
2190;DHT22;1101;51.056;7.262;2023-06-24T08:34:12;23.30;81.30
2190;DHT22;1101;51.056;7.262;2023-06-24T08:36:40;23.30;81.10
2190;DHT22;1101;51.056;7.262;2023-06-24T08:39:08;23.40;81.10
2190;DHT22;1101;51.056;7.262;2023-06-24T08:41:37;23.50;80.90
2190;DHT22;1101;51.056;7.262;2023-06-24T08:44:05;23.60;80.90
2190;DHT22;1101;51.056;7.262;2023-06-24T08:46:33;23.60;80.70
2190;DHT22;1101;51.056;7.262;2023-06-24T08:49:09;23.70;80.70
2190;DHT22;1101;51.056;7.262;2023-06-24T08:51:41;23.80;80.70
2190;DHT22;1101;51.056;7.262;2023-06-24T08:54:10;23.80;80.50
2190;DHT22;1101;51.056;7.262;2023-06-24T08:56:40;23.90;80.50
2190;DHT22;1101;51.056;7.262;2023-06-24T08:59:09;24.00;80.50
2190;DHT22;1101;51.056;7.262;2023-06-24T09:01:37;24.10;80.40
2190;DHT22;1101;51.056;7.262;2023-06-24T09:04:05;24.20;80.40
2190;DHT22;1101;51.056;7.262;2023-06-24T09:06:33;24.30;80.30
2190;DHT22;1101;51.056;7.262;2023-06-24T09:09:01;24.40;80.30
2190;DHT22;1101;51.056;7.262;2023-06-24T09:11:28;24.50;80.30
2190;DHT22;1101;51.056;7.262;2023-06-24T09:14:00;24.70;80.20
2190;DHT22;1101;51.056;7.262;2023-06-24T09:16:29;24.70;79.80
2190;DHT22;1101;51.056;7.262;2023-06-24T09:18:57;24.80;79.80
2190;DHT22;1101;51.056;7.262;2023-06-24T09:21:25;24.80;79.80
2190;DHT22;1101;51.056;7.262;2023-06-24T09:23:53;24.90;79.80
2190;DHT22;1101;51.056;7.262;2023-06-24T09:26:23;25.00;79.60
2190;DHT22;1101;51.056;7.262;2023-06-24T09:28:52;25.10;79.50
2190;DHT22;1101;51.056;7.262;2023-06-24T09:31:23;25.20;79.40
2190;DHT22;1101;51.056;7.262;2023-06-24T09:33:51;25.30;79.20
2190;DHT22;1101;51.056;7.262;2023-06-24T09:36:19;25.30;78.80
2190;DHT22;1101;51.056;7.262;2023-06-24T09:38:48;25.20;78.80
2190;DHT22;1101;51.056;7.262;2023-06-24T09:41:17;25.30;79.00
2190;DHT22;1101;51.056;7.262;2023-06-24T09:43:44;25.40;78.90
2190;DHT22;1101;51.056;7.262;2023-06-24T09:46:13;25.50;78.70
2190;DHT22;1101;51.056;7.262;2023-06-24T09:48:43;25.60;78.50
2190;DHT22;1101;51.056;7.262;2023-06-24T09:51:12;25.60;78.30
2190;DHT22;1101;51.056;7.262;2023-06-24T09:53:41;25.60;78.20
2190;DHT22;1101;51.056;7.262;2023-06-24T09:56:14;25.60;78.20
2190;DHT22;1101;51.056;7.262;2023-06-24T09:58:44;25.70;78.30
2190;DHT22;1101;51.056;7.262;2023-06-24T10:01:13;25.80;78.30
2190;DHT22;1101;51.056;7.262;2023-06-24T10:03:44;25.90;78.00
2190;DHT22;1101;51.056;7.262;2023-06-24T10:06:12;26.10;77.80
2190;DHT22;1101;51.056;7.262;2023-06-24T10:08:40;26.20;77.60
2190;DHT22;1101;51.056;7.262;2023-06-24T10:11:08;26.30;77.60
2190;DHT22;1101;51.056;7.262;2023-06-24T10:13:36;26.50;77.50
2190;DHT22;1101;51.056;7.262;2023-06-24T10:16:04;26.60;77.00
2190;DHT22;1101;51.056;7.262;2023-06-24T10:18:35;26.60;76.90
2190;DHT22;1101;51.056;7.262;2023-06-24T10:21:07;26.70;76.50
2190;DHT22;1101;51.056;7.262;2023-06-24T10:23:40;26.60;76.10
2190;DHT22;1101;51.056;7.262;2023-06-24T10:26:10;26.40;75.70
2190;DHT22;1101;51.056;7.262;2023-06-24T10:29:08;26.20;76.20
2190;DHT22;1101;51.056;7.262;2023-06-24T10:31:53;26.30;77.00
2190;DHT22;1101;51.056;7.262;2023-06-24T10:34:27;26.50;76.80
2190;DHT22;1101;51.056;7.262;2023-06-24T10:36:59;26.50;76.40
2190;DHT22;1101;51.056;7.262;2023-06-24T10:39:44;26.60;76.30
2190;DHT22;1101;51.056;7.262;2023-06-24T10:42:42;26.70;76.30
2190;DHT22;1101;51.056;7.262;2023-06-24T10:45:20;26.90;76.10
2190;DHT22;1101;51.056;7.262;2023-06-24T10:47:49;27.10;75.80
2190;DHT22;1101;51.056;7.262;2023-06-24T10:50:20;27.20;75.40
2190;DHT22;1101;51.056;7.262;2023-06-24T10:52:50;27.40;75.30
2190;DHT22;1101;51.056;7.262;2023-06-24T10:55:22;27.40;74.90
2190;DHT22;1101;51.056;7.262;2023-06-24T10:57:51;27.50;74.70
2190;DHT22;1101;51.056;7.262;2023-06-24T11:00:20;27.50;74.40
2190;DHT22;1101;51.056;7.262;2023-06-24T11:02:48;27.60;74.30
2190;DHT22;1101;51.056;7.262;2023-06-24T11:05:16;27.60;74.20
2190;DHT22;1101;51.056;7.262;2023-06-24T11:07:44;27.60;73.80
2190;DHT22;1101;51.056;7.262;2023-06-24T11:10:14;27.50;74.00
2190;DHT22;1101;51.056;7.262;2023-06-24T11:12:43;27.60;74.00
2190;DHT22;1101;51.056;7.262;2023-06-24T11:15:13;27.70;73.70
2190;DHT22;1101;51.056;7.262;2023-06-24T11:17:42;27.80;73.80
2190;DHT22;1101;51.056;7.262;2023-06-24T11:20:11;28.00;73.70
2190;DHT22;1101;51.056;7.262;2023-06-24T11:22:40;28.10;73.30
2190;DHT22;1101;51.056;7.262;2023-06-24T11:25:16;28.20;72.80
2190;DHT22;1101;51.056;7.262;2023-06-24T11:27:44;28.20;72.60
2190;DHT22;1101;51.056;7.262;2023-06-24T11:30:13;28.30;72.00
2190;DHT22;1101;51.056;7.262;2023-06-24T11:32:42;28.30;72.20
2190;DHT22;1101;51.056;7.262;2023-06-24T11:35:12;28.40;71.90
2190;DHT22;1101;51.056;7.262;2023-06-24T11:37:42;28.50;71.90
2190;DHT22;1101;51.056;7.262;2023-06-24T11:40:11;28.50;71.70
2190;DHT22;1101;51.056;7.262;2023-06-24T11:42:41;28.60;71.30
2190;DHT22;1101;51.056;7.262;2023-06-24T11:45:12;28.60;71.20
2190;DHT22;1101;51.056;7.262;2023-06-24T11:47:42;28.70;70.80
2190;DHT22;1101;51.056;7.262;2023-06-24T11:50:11;28.70;70.60
2190;DHT22;1101;51.056;7.262;2023-06-24T11:52:39;28.70;70.60
2190;DHT22;1101;51.056;7.262;2023-06-24T11:55:17;28.70;70.30
2190;DHT22;1101;51.056;7.262;2023-06-24T11:57:55;28.70;70.30
2190;DHT22;1101;51.056;7.262;2023-06-24T12:00:25;28.70;70.40
2190;DHT22;1101;51.056;7.262;2023-06-24T12:02:54;28.80;70.50
2190;DHT22;1101;51.056;7.262;2023-06-24T12:05:31;28.90;70.40
2190;DHT22;1101;51.056;7.262;2023-06-24T12:08:00;29.00;69.90
2190;DHT22;1101;51.056;7.262;2023-06-24T12:10:29;29.10;69.70
2190;DHT22;1101;51.056;7.262;2023-06-24T12:13:01;29.20;69.60
2190;DHT22;1101;51.056;7.262;2023-06-24T12:15:29;29.30;69.40
2190;DHT22;1101;51.056;7.262;2023-06-24T12:17:58;29.40;69.30
2190;DHT22;1101;51.056;7.262;2023-06-24T12:20:26;29.40;68.70
2190;DHT22;1101;51.056;7.262;2023-06-24T12:22:58;29.50;68.70
2190;DHT22;1101;51.056;7.262;2023-06-24T12:25:27;29.60;68.20
2190;DHT22;1101;51.056;7.262;2023-06-24T12:27:55;29.60;68.20
2190;DHT22;1101;51.056;7.262;2023-06-24T12:30:24;29.60;68.20
2190;DHT22;1101;51.056;7.262;2023-06-24T12:32:52;29.70;68.20
2190;DHT22;1101;51.056;7.262;2023-06-24T12:35:21;29.80;68.00
2190;DHT22;1101;51.056;7.262;2023-06-24T12:37:51;29.90;67.80
2190;DHT22;1101;51.056;7.262;2023-06-24T12:40:19;29.90;67.60
2190;DHT22;1101;51.056;7.262;2023-06-24T12:42:47;30.00;67.60
2190;DHT22;1101;51.056;7.262;2023-06-24T12:45:15;30.10;67.30
2190;DHT22;1101;51.056;7.262;2023-06-24T12:47:44;30.10;66.90
2190;DHT22;1101;51.056;7.262;2023-06-24T12:50:12;30.10;67.10
2190;DHT22;1101;51.056;7.262;2023-06-24T12:52:40;30.20;67.00
2190;DHT22;1101;51.056;7.262;2023-06-24T12:55:08;30.30;66.80
2190;DHT22;1101;51.056;7.262;2023-06-24T12:57:41;30.30;66.30
2190;DHT22;1101;51.056;7.262;2023-06-24T13:00:10;30.30;66.00
2190;DHT22;1101;51.056;7.262;2023-06-24T13:02:39;30.30;65.90
2190;DHT22;1101;51.056;7.262;2023-06-24T13:05:08;30.40;65.80
2190;DHT22;1101;51.056;7.262;2023-06-24T13:07:36;30.40;65.60
2190;DHT22;1101;51.056;7.262;2023-06-24T13:10:04;30.50;65.40
2190;DHT22;1101;51.056;7.262;2023-06-24T13:12:33;30.50;66.10
2190;DHT22;1101;51.056;7.262;2023-06-24T13:15:01;30.50;65.10
2190;DHT22;1101;51.056;7.262;2023-06-24T13:17:30;30.50;65.10
2190;DHT22;1101;51.056;7.262;2023-06-24T13:19:59;30.60;65.10
2190;DHT22;1101;51.056;7.262;2023-06-24T13:22:29;30.60;64.80
2190;DHT22;1101;51.056;7.262;2023-06-24T13:24:57;30.70;64.70
2190;DHT22;1101;51.056;7.262;2023-06-24T13:27:25;30.70;64.20
2190;DHT22;1101;51.056;7.262;2023-06-24T13:29:52;30.70;63.50
2190;DHT22;1101;51.056;7.262;2023-06-24T13:32:20;30.70;63.80
2190;DHT22;1101;51.056;7.262;2023-06-24T13:34:48;30.70;64.00
2190;DHT22;1101;51.056;7.262;2023-06-24T13:37:16;30.80;64.10
2190;DHT22;1101;51.056;7.262;2023-06-24T13:39:45;30.90;64.00
2190;DHT22;1101;51.056;7.262;2023-06-24T13:42:13;31.00;63.90
2190;DHT22;1101;51.056;7.262;2023-06-24T13:44:41;31.10;63.80
2190;DHT22;1101;51.056;7.262;2023-06-24T13:47:10;31.20;63.40
2190;DHT22;1101;51.056;7.262;2023-06-24T13:49:38;31.30;63.30
2190;DHT22;1101;51.056;7.262;2023-06-24T13:52:06;31.30;63.20
2190;DHT22;1101;51.056;7.262;2023-06-24T13:54:34;31.40;63.00
2190;DHT22;1101;51.056;7.262;2023-06-24T13:57:03;31.40;62.50
2190;DHT22;1101;51.056;7.262;2023-06-24T13:59:31;31.30;61.80
2190;DHT22;1101;51.056;7.262;2023-06-24T14:01:59;31.30;61.10
2190;DHT22;1101;51.056;7.262;2023-06-24T14:04:27;31.20;60.90
2190;DHT22;1101;51.056;7.262;2023-06-24T14:06:55;31.10;61.50
2190;DHT22;1101;51.056;7.262;2023-06-24T14:09:23;31.10;61.80
2190;DHT22;1101;51.056;7.262;2023-06-24T14:11:50;31.20;61.80
2190;DHT22;1101;51.056;7.262;2023-06-24T14:14:20;31.20;61.40
2190;DHT22;1101;51.056;7.262;2023-06-24T14:16:48;31.20;60.10
2190;DHT22;1101;51.056;7.262;2023-06-24T14:19:15;31.10;60.30
2190;DHT22;1101;51.056;7.262;2023-06-24T14:21:44;31.10;60.80
2190;DHT22;1101;51.056;7.262;2023-06-24T14:24:12;31.20;60.80
2190;DHT22;1101;51.056;7.262;2023-06-24T14:26:42;31.20;60.70
2190;DHT22;1101;51.056;7.262;2023-06-24T14:29:10;31.20;60.10
2190;DHT22;1101;51.056;7.262;2023-06-24T14:31:40;31.20;60.10
2190;DHT22;1101;51.056;7.262;2023-06-24T14:34:07;31.20;60.30
2190;DHT22;1101;51.056;7.262;2023-06-24T14:36:35;31.20;60.50
2190;DHT22;1101;51.056;7.262;2023-06-24T14:39:03;31.40;60.10
2190;DHT22;1101;51.056;7.262;2023-06-24T14:41:31;31.40;59.20
2190;DHT22;1101;51.056;7.262;2023-06-24T14:43:59;31.30;59.60
2190;DHT22;1101;51.056;7.262;2023-06-24T14:46:27;31.30;59.90
2190;DHT22;1101;51.056;7.262;2023-06-24T14:48:56;31.40;60.00
2190;DHT22;1101;51.056;7.262;2023-06-24T14:51:24;31.50;59.50
2190;DHT22;1101;51.056;7.262;2023-06-24T14:53:54;31.60;59.70
2190;DHT22;1101;51.056;7.262;2023-06-24T14:56:21;31.60;59.40
2190;DHT22;1101;51.056;7.262;2023-06-24T14:58:50;31.60;59.40
2190;DHT22;1101;51.056;7.262;2023-06-24T15:01:18;31.70;59.30
2190;DHT22;1101;51.056;7.262;2023-06-24T15:03:46;31.70;58.80
2190;DHT22;1101;51.056;7.262;2023-06-24T15:06:16;31.60;59.20
2190;DHT22;1101;51.056;7.262;2023-06-24T15:08:43;31.70;59.00
2190;DHT22;1101;51.056;7.262;2023-06-24T15:11:12;31.80;59.70
2190;DHT22;1101;51.056;7.262;2023-06-24T15:13:40;31.80;58.70
2190;DHT22;1101;51.056;7.262;2023-06-24T15:16:07;31.90;58.20
2190;DHT22;1101;51.056;7.262;2023-06-24T15:18:39;31.90;58.10
2190;DHT22;1101;51.056;7.262;2023-06-24T15:21:11;31.90;58.00
2190;DHT22;1101;51.056;7.262;2023-06-24T15:24:00;32.00;58.30
2190;DHT22;1101;51.056;7.262;2023-06-24T15:26:28;32.00;58.10
2190;DHT22;1101;51.056;7.262;2023-06-24T15:28:56;32.10;57.90
2190;DHT22;1101;51.056;7.262;2023-06-24T15:31:24;32.10;58.00
2190;DHT22;1101;51.056;7.262;2023-06-24T15:33:52;32.20;58.00
2190;DHT22;1101;51.056;7.262;2023-06-24T15:36:20;32.30;57.90
2190;DHT22;1101;51.056;7.262;2023-06-24T15:38:48;32.30;57.60
2190;DHT22;1101;51.056;7.262;2023-06-24T15:41:17;32.20;57.00
2190;DHT22;1101;51.056;7.262;2023-06-24T15:43:45;32.10;57.10
2190;DHT22;1101;51.056;7.262;2023-06-24T15:46:13;32.10;56.90
2190;DHT22;1101;51.056;7.262;2023-06-24T15:48:41;32.10;56.90
2190;DHT22;1101;51.056;7.262;2023-06-24T15:51:09;32.20;57.10
2190;DHT22;1101;51.056;7.262;2023-06-24T15:53:37;32.30;57.20
2190;DHT22;1101;51.056;7.262;2023-06-24T15:56:05;32.40;56.90
2190;DHT22;1101;51.056;7.262;2023-06-24T15:58:34;32.50;57.00
2190;DHT22;1101;51.056;7.262;2023-06-24T16:01:01;32.60;56.70
2190;DHT22;1101;51.056;7.262;2023-06-24T16:03:29;32.80;56.60
2190;DHT22;1101;51.056;7.262;2023-06-24T16:05:57;32.90;56.00
2190;DHT22;1101;51.056;7.262;2023-06-24T16:08:25;33.00;56.00
2190;DHT22;1101;51.056;7.262;2023-06-24T16:10:53;33.00;56.00
2190;DHT22;1101;51.056;7.262;2023-06-24T16:13:21;33.10;56.00
2190;DHT22;1101;51.056;7.262;2023-06-24T16:15:50;33.20;55.90